Bei Facebook empfehlenBei Twitter postenGoogle plusPinterest

Das Wetter im Erzgebirge am 10.06.2017

Wetter und Klima am 10.06.2017 Holzhau im Erzgebirge (630m ü.NN)
Letzte gemessene Temperatur und Uhrzeit der Messung23:45:00 Uhr11.80 °C
Temperatur (Maximum / Höchstwert) und Uhrzeit der Messung16:15:00 Uhr22.00 °C
Temperatur (Minimum / Tiefstwert) und Uhrzeit der Messung04:30:007.80 °C
Errechneter Absolutwert der Temperaturschwankungen zwischen Tmin und Tmax des Tages14.20 K
Errechnete Tagesmitteltemperatur15.18333 °C
Gesamt - Niederschlag des Tages (in flüssiger Form)0.52 Liter / m²
Luftdruck (Maximum / Höchstwert) und Zeitpunkt der Messung22:30:00 Uhr1018.70 hPa
Luftdruck (Minimum / Tiefstwert) und Zeitpunkt der Messung01:45:00 Uhr1013.20 hPa
Errechneter Absolutwert der Luftdruckschwankungen des Tages5.50 hPa
Höchste gemessene Windgeschwindigkeit und Uhrzeit der Messung15:15:00 Uhr25.92 km/h
Errechnete Windhäufigkeit in Relation zu den Messwerten des Tages6.25000 %
Niedrigste Windkühle (Windchill) und Zeitpunkt der Messung04:30:00 Uhr7.80 °C
Taupunkt (Maximum / Höchstwert) und Uhrzeit der Messung08:45:00 Uhr12.00 °C
Taupunkt (Minimum / Tiefstwert) und Uhrzeit der Messung04:30:006.10 °C
Anzahl der automatisch eingelesenen Messwerte 96

Detaillierte Wetter- und Klima- Messwerte für den 10.06.2017 in Holzhau im Erzgebirge (630m ü.NN)
ZeitTemperaturLuftdruckRel. LuftfeuchteWindWindrichtungWindchillTaupunktNiederschlag l/m²
23:45:0011.80 °C1018.50 hPa77.00 %7.90 °C0.52
23:30:0012.10 °C1018.60 hPa76.00 %8.00 °C0.52
23:15:0012.20 °C1018.60 hPa76.00 %8.10 °C0.52
23:00:0012.30 °C1018.60 hPa75.00 %8.00 °C0.52
22:45:0012.40 °C1018.50 hPa74.00 %7.90 °C0.52
22:30:0012.50 °C1018.70 hPa73.00 %7.80 °C0.52
22:15:0012.90 °C1018.50 hPa70.00 %7.60 °C0.52
22:00:0013.30 °C1018.40 hPa70.00 %8.00 °C0.52
21:45:0013.80 °C1018.30 hPa68.00 %8.00 °C0.52
21:30:0014.40 °C1018.30 hPa67.00 %8.40 °C0.52
21:15:0015.30 °C1018.10 hPa64.00 %8.50 °C0.52
21:00:0016.20 °C1018.00 hPa60.00 %8.40 °C0.52
20:45:0016.90 °C1017.80 hPa58.00 %8.60 °C0.52
20:30:0017.30 °C1017.70 hPa57.00 %8.70 °C0.52
20:15:0017.70 °C1017.70 hPa55.00 %8.60 °C0.52
20:00:0018.20 °C1017.70 hPa54.00 %8.70 °C0.52
19:45:0018.50 °C1017.90 hPa54.00 %9.00 °C0.52
19:30:0018.70 °C1017.80 hPa53.00 %8.90 °C0.52
19:15:0019.20 °C1017.90 hPa51.00 %8.80 °C0.52
19:00:0019.50 °C1017.80 hPa52.00 %9.40 °C0.52
18:45:0019.40 °C1017.70 hPa52.00 %9.30 °C0.52
18:30:0019.40 °C1017.80 hPa51.00 %9.00 °C0.52
18:15:0020.10 °C1017.70 hPa48.00 %8.80 °C0.52
18:00:0020.80 °C1017.70 hPa47.00 %9.10 °C0.52
17:45:0020.70 °C1017.50 hPa46.00 %8.70 °C0.52
17:30:0020.80 °C1017.70 hPa47.00 %14.40 km/hNW20.80 °C9.10 °C0.52
17:15:0020.40 °C1017.80 hPa49.00 %9.30 °C0.52
17:00:0020.50 °C1017.90 hPa49.00 %9.40 °C0.52
16:45:0020.40 °C1017.90 hPa48.00 %9.00 °C0.52
16:30:0021.00 °C1017.80 hPa49.00 %15.48 km/hW21.00 °C9.90 °C0.52
16:15:0022.00 °C1017.80 hPa46.00 %9.90 °C0.52
16:00:0021.80 °C1017.60 hPa47.00 %3.96 km/hWNW21.80 °C10.00 °C0.52
15:45:0021.50 °C1017.90 hPa50.00 %10.60 °C0.52
15:30:0020.90 °C1017.90 hPa51.00 %10.40 °C0.52
15:15:0020.80 °C1017.80 hPa51.00 %25.92 km/hWSW21.80 °C10.30 °C0.52
15:00:0020.80 °C1017.80 hPa51.00 %10.30 °C0.52
14:45:0020.20 °C1017.80 hPa55.00 %10.90 °C0.52
14:30:0018.80 °C1017.90 hPa57.00 %10.10 °C0.52
14:15:0019.30 °C1018.00 hPa55.00 %6.48 km/hW19.30 °C10.00 °C0.52
14:00:0019.40 °C1018.10 hPa53.00 %9.60 °C0.52
13:45:0019.90 °C1017.80 hPa54.00 %10.30 °C0.52
13:30:0019.80 °C1017.60 hPa55.00 %10.50 °C0.52
13:15:0018.90 °C1017.80 hPa55.00 %9.70 °C0.52
13:00:0018.90 °C1017.80 hPa55.00 %9.70 °C0.52
12:45:0019.60 °C1017.70 hPa55.00 %10.30 °C0.52
12:30:0018.70 °C1017.70 hPa57.00 %10.00 °C0.52
12:15:0019.30 °C1017.60 hPa57.00 %10.60 °C0.52
12:00:0018.70 °C1017.80 hPa56.00 %9.80 °C0.52
11:45:0019.20 °C1017.80 hPa57.00 %10.50 °C0.52
11:30:0018.80 °C1017.60 hPa61.00 %11.10 °C0.52
11:15:0018.40 °C1017.60 hPa63.00 %11.20 °C0.52
11:00:0017.30 °C1017.40 hPa65.00 %10.70 °C0.52
10:45:0017.60 °C1017.40 hPa65.00 %10.90 °C0.52
10:30:0017.20 °C1017.10 hPa63.00 %10.10 °C0.52
10:15:0017.80 °C1017.10 hPa64.00 %10.90 °C0.52
10:00:0017.00 °C1017.00 hPa65.00 %10.40 °C0.52
09:45:0017.20 °C1016.70 hPa66.00 %6.48 km/hN17.20 °C10.80 °C0.52
09:30:0017.00 °C1016.80 hPa69.00 %11.30 °C0.52
09:15:0016.40 °C1016.60 hPa74.00 %11.80 °C0.52
09:00:0015.70 °C1016.70 hPa76.00 %11.50 °C0.52
08:45:0015.80 °C1016.60 hPa78.00 %12.00 °C0.52
08:30:0014.50 °C1016.30 hPa84.00 %11.80 °C0.52
08:15:0012.80 °C1016.10 hPa87.00 %10.70 °C0.52
08:00:0012.10 °C1016.10 hPa88.00 %10.20 °C0.52
07:45:0011.80 °C1015.90 hPa89.00 %10.00 °C0.52
07:30:0011.60 °C1015.70 hPa89.00 %9.90 °C0.52
07:15:0011.40 °C1015.60 hPa90.00 %9.80 °C0.52
07:00:0011.40 °C1015.50 hPa91.00 %10.00 °C0.52
06:45:0010.80 °C1015.20 hPa91.00 %9.40 °C0.52
06:30:0010.30 °C1015.20 hPa91.00 %8.90 °C0.52
06:15:0010.00 °C1015.20 hPa91.00 %8.60 °C0.52
06:00:009.80 °C1015.20 hPa91.00 %8.40 °C0.52
05:45:009.60 °C1014.90 hPa92.00 %8.40 °C0.52
05:30:009.30 °C1014.90 hPa91.00 %7.90 °C0.52
05:15:009.00 °C1014.80 hPa91.00 %7.60 °C0.52
05:00:008.60 °C1014.70 hPa91.00 %7.20 °C0.52
04:45:008.10 °C1014.60 hPa91.00 %6.70 °C0.52
04:30:007.80 °C1014.30 hPa89.00 %6.10 °C0.52
04:15:008.00 °C1014.20 hPa88.00 %6.10 °C0.52
04:00:008.50 °C1014.00 hPa89.00 %6.80 °C0.52
03:45:008.90 °C1013.80 hPa89.00 %7.20 °C0.52
03:30:009.30 °C1013.80 hPa89.00 %7.60 °C0.52
03:15:009.60 °C1013.60 hPa89.00 %7.90 °C0.52
03:00:009.80 °C1013.50 hPa88.00 %7.90 °C0.52
02:45:0010.10 °C1013.50 hPa88.00 %8.20 °C0.52
02:30:0010.30 °C1013.40 hPa88.00 %8.40 °C0.52
02:15:0010.60 °C1013.50 hPa87.00 %8.50 °C0.52
02:00:0010.60 °C1013.30 hPa87.00 %8.50 °C 
01:45:0010.70 °C1013.20 hPa87.00 %8.60 °C 
01:30:0010.80 °C1013.30 hPa86.00 %8.60 °C 
01:15:0010.80 °C1013.50 hPa85.00 %8.40 °C 
01:00:0010.90 °C1013.80 hPa84.00 %8.30 °C 
00:45:0011.10 °C1013.70 hPa84.00 %8.50 °C 
00:30:0011.30 °C1013.60 hPa83.00 %8.50 °C 
00:15:0011.80 °C1013.50 hPa83.00 %9.00 °C 
00:00:0012.20 °C1013.80 hPa85.00 %9.80 °C 

Permanenter Link zu dieser Seite: Wetter im Erzgebirge am 10.06.2017
Performance-Info: Die Erstellung der Seite / Statistik(en) / Tabelle(n) erforderte 5 Datenbankserver-Abfrage(n) und dauerte 101 Millisekunden. (Dieser Messwert ist von der Gesamt-Auslastung des Servers abhängig.)
Erzgebirge - Wetter | Erzgebirge - Wetter (Mobilgeräte) | Komplette Klimadatenbank